Time;durP1;ratioP1;P1;durP2;ratioP2;P2;SDS_P1;SDS_P2;PMS_P1;PMS_P2;Temp;Humidity;BMP_temperature;BMP_pressure;BME280_temperature;BME280_humidity;BME280_pressure;Samples;Min_cycle;Max_cycle;Signal;HPM_P1;HPM_P2
2022/05/10 00:01:39;;;;;;;7.60;4.30;;;;;;;5.66;61.28;100890.32;214233;1274;142747;-67
2022/05/10 00:06:46;;;;;;;8.10;3.70;;;;;;;5.67;61.39;100888.27;215837;1274;140488;-67
2022/05/10 00:11:51;;;;;;;4.70;3.60;;;;;;;5.70;61.56;100883.06;215680;1274;140769;-68
2022/05/10 00:16:55;;;;;;;4.90;3.10;;;;;;;5.68;61.48;100880.59;214557;1275;142725;-68
2022/05/10 00:21:58;;;;;;;10.60;5.20;;;;;;;5.63;61.41;100876.71;215654;1274;140502;-68
2022/05/10 00:27:01;;;;;;;10.60;5.60;;;;;;;5.58;61.73;100876.61;216053;1274;140591;-68
2022/05/10 00:32:04;;;;;;;8.60;4.20;;;;;;;5.56;61.87;100871.19;215323;1274;141128;-67
2022/05/10 00:37:09;;;;;;;6.90;4.60;;;;;;;5.55;62.09;100864.05;214877;1275;141545;-67
2022/05/10 00:42:31;;;;;;;9.20;3.60;;;;;;;5.51;62.18;100863.56;214470;1274;140075;-68
2022/05/10 00:47:47;;;;;;;6.80;4.00;;;;;;;5.50;62.40;100851.84;213296;1274;139777;-67
2022/05/10 00:53:16;;;;;;;2.80;2.30;;;;;;;5.51;62.26;100847.65;214789;1274;140856;-68
2022/05/10 00:58:41;;;;;;;3.40;2.10;;;;;;;5.56;62.06;100842.95;213515;1274;140557;-66
2022/05/10 01:03:57;;;;;;;2.50;2.20;;;;;;;5.62;61.80;100838.20;214042;1274;140453;-67
2022/05/10 01:09:16;;;;;;;7.30;2.30;;;;;;;5.68;61.68;100831.39;213937;1274;141897;-68
2022/05/10 01:14:35;;;;;;;2.90;2.70;;;;;;;5.72;61.66;100823.36;213536;1274;141235;-67
2022/05/10 01:19:42;;;;;;;7.70;3.80;;;;;;;5.74;61.67;100817.27;213546;1274;140222;-67
2022/05/10 01:25:08;;;;;;;3.90;2.90;;;;;;;5.73;61.59;100815.33;214214;1274;141253;-67
2022/05/10 01:30:22;;;;;;;3.00;1.80;;;;;;;5.73;61.43;100813.73;213543;1276;140608;-67
2022/05/10 01:35:29;;;;;;;5.50;2.40;;;;;;;5.68;61.58;100810.15;213555;1274;140547;-66
2022/05/10 01:40:32;;;;;;;;;;;;;;;5.67;61.34;100804.10;214678;1274;139622;-68
2022/05/10 01:45:55;;;;;;;3.50;2.40;;;;;;;5.63;61.38;100795.96;214902;1274;127367;-68
2022/05/10 01:51:09;;;;;;;4.70;2.60;;;;;;;5.61;61.86;100790.80;214758;1274;139912;-67
2022/05/10 01:56:25;;;;;;;3.40;2.30;;;;;;;5.56;61.75;100792.98;215482;1274;141041;-68
2022/05/10 02:01:35;;;;;;;3.40;2.40;;;;;;;5.52;61.79;100789.61;215643;1274;139928;-68
2022/05/10 02:07:00;;;;;;;4.60;2.80;;;;;;;5.55;62.05;100787.23;216103;1274;142574;-70
2022/05/10 02:12:28;;;;;;;2.10;1.90;;;;;;;5.52;61.97;100783.72;215963;1274;142184;-70
2022/05/10 02:17:36;;;;;;;;;;;;;;;5.46;62.17;100780.13;216152;1274;140537;-70
2022/05/10 02:22:46;;;;;;;4.10;3.00;;;;;;;5.37;62.59;100775.92;216648;1274;127300;-70
2022/05/10 02:27:52;;;;;;;2.60;2.30;;;;;;;5.40;62.60;100771.52;214212;1274;140063;-66
2022/05/10 02:33:08;;;;;;;2.50;1.90;;;;;;;5.34;62.47;100774.13;214813;1274;141359;-68
2022/05/10 02:38:16;;;;;;;10.40;5.20;;;;;;;5.28;62.54;100770.95;214337;1274;139473;-66
2022/05/10 02:43:34;;;;;;;8.70;2.20;;;;;;;5.18;62.75;100768.98;214988;1274;248947;-69
2022/05/10 02:48:38;;;;;;;3.60;2.70;;;;;;;5.09;62.83;100765.60;214139;1274;140326;-67
2022/05/10 02:53:42;;;;;;;3.60;2.00;;;;;;;5.04;62.90;100763.14;213638;1274;139319;-70
2022/05/10 02:59:05;;;;;;;3.00;2.70;;;;;;;5.00;62.99;100762.37;213543;1274;141062;-67
2022/05/10 03:04:12;;;;;;;4.00;3.00;;;;;;;4.96;63.14;100761.42;213488;1274;140805;-66
2022/05/10 03:09:16;;;;;;;3.30;2.00;;;;;;;4.87;63.19;100759.59;214345;1274;139779;-66
2022/05/10 03:14:19;;;;;;;5.90;2.90;;;;;;;4.87;63.76;100757.00;213745;1274;139153;-66
2022/05/10 03:19:22;;;;;;;7.50;3.20;;;;;;;4.96;63.93;100758.42;213656;1274;139631;-66
2022/05/10 03:24:24;;;;;;;4.20;2.70;;;;;;;5.14;63.94;100757.36;213987;1274;141067;-66
2022/05/10 03:29:28;;;;;;;2.60;2.40;;;;;;;5.42;63.86;100756.09;214898;1274;140554;-67
2022/05/10 03:39:53;;;;;;;5.40;2.80;;;;;;;5.82;64.07;100748.11;215354;1272;139964;-68
2022/05/10 03:44:56;;;;;;;3.70;2.10;;;;;;;6.32;63.85;100754.88;213357;1274;139965;-66
2022/05/10 03:49:58;;;;;;;2.60;2.40;;;;;;;6.80;63.42;100750.50;214720;1274;140207;-67
2022/05/10 03:55:00;;;;;;;5.00;2.90;;;;;;;7.25;63.60;100742.84;216145;1274;141239;-67
2022/05/10 04:00:07;;;;;;;6.20;3.60;;;;;;;7.50;62.91;100739.26;214552;1274;141375;-67
2022/05/10 04:05:12;;;;;;;5.80;3.80;;;;;;;7.84;62.77;100741.70;214421;1276;139840;-67
2022/05/10 04:10:19;;;;;;;8.30;5.00;;;;;;;9.01;62.39;100737.24;213859;1274;139714;-67
2022/05/10 04:15:23;;;;;;;4.40;2.60;;;;;;;10.93;59.63;100738.26;216016;1274;139525;-68
2022/05/10 04:20:25;;;;;;;3.20;2.50;;;;;;;12.28;57.03;100726.40;213680;1274;139993;-65
2022/05/10 04:25:27;;;;;;;9.90;2.90;;;;;;;12.57;54.94;100727.38;213683;1274;140071;-65
2022/05/10 04:30:29;;;;;;;3.10;2.10;;;;;;;12.46;53.82;100729.84;214943;1274;140597;-64
2022/05/10 04:35:32;;;;;;;5.50;2.80;;;;;;;12.39;52.79;100730.01;214472;1274;209133;-64
2022/05/10 04:45:57;;;;;;;4.70;3.10;;;;;;;12.27;51.89;100730.90;214505;1274;142123;-64
2022/05/10 04:51:01;;;;;;;4.50;3.40;;;;;;;12.18;50.87;100732.03;214403;1274;140690;-62
2022/05/10 04:56:04;;;;;;;6.10;3.10;;;;;;;11.80;50.88;100735.12;215052;1274;140870;-65
2022/05/10 05:01:10;;;;;;;3.30;2.90;;;;;;;11.44;50.71;100732.25;213759;1274;142379;-66
2022/05/10 05:06:13;;;;;;;5.20;3.80;;;;;;;11.08;50.75;100733.91;213487;1274;140786;-64
2022/05/10 05:11:16;;;;;;;5.20;2.80;;;;;;;11.18;50.93;100732.73;213932;1274;141481;-65
2022/05/10 05:16:19;;;;;;;4.80;2.70;;;;;;;13.85;48.20;100726.13;214721;1274;141681;-64
2022/05/10 05:21:21;;;;;;;4.80;3.00;;;;;;;18.55;44.24;100725.89;214392;1274;141092;-65
2022/05/10 05:26:24;;;;;;;4.90;3.30;;;;;;;22.01;40.39;100723.96;214035;1274;222395;-63
2022/05/10 05:31:28;;;;;;;3.30;2.50;;;;;;;24.48;37.33;100723.52;213238;1274;140175;-62
2022/05/10 05:36:31;;;;;;;5.10;2.90;;;;;;;26.46;35.01;100731.95;214032;1274;140911;-63
2022/05/10 05:41:34;;;;;;;4.80;2.60;;;;;;;28.21;32.79;100745.49;214244;1274;141292;-62
2022/05/10 05:46:36;;;;;;;2.80;2.10;;;;;;;29.13;30.73;100744.90;214753;1274;141919;-62
2022/05/10 05:51:39;;;;;;;2.80;2.20;;;;;;;27.98;28.96;100749.73;215064;1274;141530;-63
2022/05/10 05:56:42;;;;;;;3.00;2.30;;;;;;;27.40;28.10;100747.05;215933;1274;140446;-62
2022/05/10 06:01:45;;;;;;;4.00;2.10;;;;;;;26.19;28.44;100746.48;216001;1274;142617;-64
2022/05/10 06:06:48;;;;;;;3.80;2.40;;;;;;;24.49;29.68;100741.30;215890;1274;140550;-63
2022/05/10 06:11:50;;;;;;;5.10;2.60;;;;;;;22.45;29.63;100739.13;214645;1274;140227;-63
2022/05/10 06:16:56;;;;;;;4.30;2.90;;;;;;;21.13;30.86;100733.38;213859;1274;142657;-64
2022/05/10 06:21:58;;;;;;;8.00;3.10;;;;;;;20.28;31.96;100732.17;215461;1274;140485;-62
2022/05/10 06:27:11;;;;;;;5.60;2.80;;;;;;;19.40;33.28;100737.09;214304;1274;140771;-61
2022/05/10 06:32:26;;;;;;;6.10;2.90;;;;;;;18.68;34.44;100734.40;214362;1274;140589;-61
2022/05/10 06:42:52;;;;;;;4.70;3.40;;;;;;;18.04;36.19;100727.87;213787;1274;140538;-62
2022/05/10 06:47:55;;;;;;;6.30;3.60;;;;;;;17.82;36.44;100722.38;214764;1274;140584;-63
2022/05/10 06:52:59;;;;;;;5.30;2.70;;;;;;;18.47;37.13;100725.89;213832;1274;139708;-61
2022/05/10 06:58:03;;;;;;;3.60;2.60;;;;;;;20.13;36.31;100723.73;213091;1274;206306;-61
2022/05/10 07:03:16;;;;;;;4.90;3.40;;;;;;;22.08;34.83;100720.59;213834;1274;140036;-61
2022/05/10 07:08:20;;;;;;;4.20;3.10;;;;;;;23.40;33.41;100720.55;213195;1274;140941;-61
2022/05/10 07:13:25;;;;;;;6.90;3.60;;;;;;;23.92;32.57;100720.30;214124;1274;141507;-61
2022/05/10 07:18:28;;;;;;;2.80;2.20;;;;;;;24.13;32.48;100713.45;213703;1274;142524;-61
2022/05/10 07:23:32;;;;;;;3.50;2.60;;;;;;;24.18;31.29;100709.82;214100;1274;142623;-61
2022/05/10 07:28:40;;;;;;;2.80;2.20;;;;;;;24.14;31.65;100704.89;213653;1274;140843;-61
2022/05/10 07:33:48;;;;;;;2.10;2.00;;;;;;;23.83;31.79;100698.92;213649;1274;141815;-60
2022/05/10 07:38:52;;;;;;;8.80;2.80;;;;;;;24.09;32.50;100689.77;213592;1274;142048;-63
2022/05/10 07:43:56;;;;;;;7.80;3.70;;;;;;;24.46;32.88;100688.56;214362;1274;141211;-61
2022/05/10 07:48:59;;;;;;;4.40;1.50;;;;;;;24.70;32.70;100687.14;215027;1274;461951;-62
2022/05/10 07:54:02;;;;;;;7.50;2.20;;;;;;;24.68;31.86;100691.94;215709;1274;140945;-63
2022/05/10 07:59:05;;;;;;;2.60;2.40;;;;;;;24.51;30.76;100686.13;215880;1274;139600;-63
2022/05/10 08:04:08;;;;;;;2.60;2.40;;;;;;;24.43;30.20;100681.61;216215;1274;140536;-64
2022/05/10 08:09:12;;;;;;;3.10;2.30;;;;;;;24.51;31.00;100677.90;215999;1273;139688;-63
2022/05/10 08:14:16;;;;;;;2.10;2.00;;;;;;;24.32;29.65;100670.59;215317;1274;140134;-61
2022/05/10 08:19:19;;;;;;;6.80;2.60;;;;;;;23.99;29.74;100668.02;214097;1276;139714;-62
2022/05/10 08:24:25;;;;;;;3.60;2.20;;;;;;;23.60;29.45;100674.48;214690;1275;140418;-62
2022/05/10 08:29:27;;;;;;;3.90;2.30;;;;;;;23.64;30.22;100674.30;214693;1274;141564;-62
2022/05/10 08:34:33;;;;;;;2.70;1.90;;;;;;;23.52;29.20;100663.95;214047;1274;140295;-62
2022/05/10 08:39:35;;;;;;;3.40;2.30;;;;;;;23.65;30.27;100656.16;214657;1274;140097;-62
2022/05/10 08:44:40;;;;;;;2.70;2.30;;;;;;;23.53;29.33;100653.73;214076;1274;139938;-63
2022/05/10 08:49:57;;;;;;;6.00;2.40;;;;;;;23.45;29.91;100655.23;214309;1274;140216;-63
2022/05/10 08:55:28;;;;;;;4.90;3.10;;;;;;;23.32;29.37;100644.99;213716;1274;139880;-62
2022/05/10 09:00:34;;;;;;;6.00;2.70;;;;;;;23.28;29.36;100638.30;213734;1274;139861;-63
2022/05/10 09:05:43;;;;;;;3.10;2.70;;;;;;;23.32;29.56;100636.78;213643;1274;140926;-64
2022/05/10 09:10:59;;;;;;;2.20;2.00;;;;;;;23.14;29.63;100634.68;213979;1274;140746;-62
2022/05/10 09:16:09;;;;;;;7.70;2.70;;;;;;;23.07;29.45;100630.33;214260;1274;140856;-63
2022/05/10 09:21:18;;;;;;;5.40;2.50;;;;;;;23.26;29.86;100619.73;214700;1274;151196;-64
2022/05/10 09:26:25;;;;;;;7.50;3.40;;;;;;;23.31;29.25;100623.69;214532;1274;142145;-63
2022/05/10 09:37:34;;;;;;;6.40;3.40;;;;;;;22.84;29.34;100626.39;214305;1274;151377;-63
2022/05/10 09:42:44;;;;;;;6.10;2.70;;;;;;;23.01;29.12;100613.67;214205;1273;141515;-63
2022/05/10 09:48:09;;;;;;;6.50;3.50;;;;;;;22.83;28.96;100608.40;215406;1276;141544;-64
2022/05/10 09:53:12;;;;;;;2.10;1.90;;;;;;;22.64;28.71;100594.63;213892;1274;141116;-65
2022/05/10 09:58:20;;;;;;;4.70;2.50;;;;;;;22.50;29.18;100592.88;215472;1274;141463;-66
2022/05/10 10:03:43;;;;;;;4.00;2.80;;;;;;;22.57;29.32;100590.21;216221;1274;140027;-66
2022/05/10 10:08:51;;;;;;;8.70;3.50;;;;;;;22.91;29.64;100583.93;214736;1274;163314;-66
2022/05/10 10:14:04;;;;;;;7.30;3.40;;;;;;;23.01;29.40;100576.46;215297;1276;140572;-65
2022/05/10 10:19:19;;;;;;;6.50;2.90;;;;;;;22.97;29.14;100571.55;215251;1274;140552;-64
2022/05/10 10:24:37;;;;;;;4.10;3.50;;;;;;;23.05;28.84;100564.11;215113;1274;142596;-63
2022/05/10 10:29:48;;;;;;;3.40;3.10;;;;;;;22.92;28.92;100556.11;214390;1274;140253;-64
2022/05/10 10:34:59;;;;;;;3.20;2.90;;;;;;;22.88;28.28;100543.25;214775;1274;140192;-65
2022/05/10 10:40:18;;;;;;;7.90;3.20;;;;;;;22.88;28.75;100534.27;214279;1274;140716;-65
2022/05/10 10:45:36;;;;;;;51.20;7.40;;;;;;;23.05;28.18;100519.42;214144;1274;142156;-64
2022/05/10 10:50:40;;;;;;;3.60;2.70;;;;;;;23.25;27.93;100519.05;213469;1274;141480;-64
2022/05/10 10:55:44;;;;;;;5.40;3.30;;;;;;;22.89;27.71;100517.17;214408;1274;141137;-63
2022/05/10 11:01:12;;;;;;;6.70;3.60;;;;;;;22.61;27.65;100512.28;213446;1274;140653;-62
2022/05/10 11:06:34;;;;;;;4.70;2.80;;;;;;;22.68;27.68;100498.91;214102;1274;140976;-62
2022/05/10 11:11:59;;;;;;;6.50;3.40;;;;;;;22.49;27.89;100491.02;214167;1274;139407;-63
2022/05/10 11:17:25;;;;;;;5.50;2.70;;;;;;;22.66;28.52;100476.12;214197;1274;142355;-63
2022/05/10 11:22:36;;;;;;;3.20;2.90;;;;;;;22.59;28.19;100467.65;213320;1274;140721;-63
2022/05/10 11:28:01;;;;;;;3.70;2.10;;;;;;;22.64;27.99;100454.02;214055;1274;140280;-64
2022/05/10 11:33:50;;;;;;;17.00;2.80;;;;;;;22.59;28.20;100451.88;214360;1274;140307;-63
2022/05/10 11:39:23;;;;;;;3.00;2.60;;;;;;;22.32;27.63;100446.17;214151;1274;140313;-62
2022/05/10 11:45:01;;;;;;;3.40;3.10;;;;;;;22.37;28.23;100438.10;214622;1276;140310;-64
2022/05/10 11:50:24;;;;;;;4.30;2.70;;;;;;;22.70;28.45;100427.93;214708;1274;140088;-64
2022/05/10 11:55:59;;;;;;;2.80;2.20;;;;;;;22.84;28.17;100421.43;215103;1274;140125;-64
2022/05/10 12:01:10;;;;;;;3.10;2.20;;;;;;;22.94;28.25;100414.50;215958;1274;140951;-64
2022/05/10 12:06:25;;;;;;;4.10;1.80;;;;;;;22.97;27.71;100407.04;216150;1274;141062;-64
2022/05/10 12:11:34;;;;;;;4.10;2.20;;;;;;;22.68;27.24;100399.17;216201;1274;139906;-63
2022/05/10 12:22:03;;;;;;;4.20;2.40;;;;;;;23.03;27.11;100383.38;214933;1274;141955;-64
2022/05/10 12:27:13;;;;;;;3.10;2.10;;;;;;;22.98;26.87;100375.98;215183;1274;141268;-63
2022/05/10 12:32:20;;;;;;;3.30;2.30;;;;;;;23.06;27.24;100373.27;214983;1274;140955;-63
2022/05/10 12:37:27;;;;;;;2.50;2.30;;;;;;;22.91;26.78;100370.08;214067;1274;139744;-63
2022/05/10 12:42:40;;;;;;;3.60;1.70;;;;;;;23.06;26.79;100362.32;214832;1274;140790;-63
2022/05/10 12:47:52;;;;;;;2.50;1.70;;;;;;;23.09;26.13;100350.79;213244;1274;139654;-67
2022/05/10 12:52:58;;;;;;;4.00;1.80;;;;;;;22.91;25.83;100342.19;213310;1274;140575;-66
2022/05/10 12:58:18;;;;;;;2.40;1.70;;;;;;;22.95;26.13;100345.98;214501;1274;140872;-65
2022/05/10 13:03:30;;;;;;;4.30;1.80;;;;;;;22.63;25.48;100343.73;214444;1274;140489;-65
2022/05/10 13:08:58;;;;;;;2.80;1.90;;;;;;;22.46;25.88;100336.73;214093;1274;139963;-64
2022/05/10 13:14:12;;;;;;;1.60;1.50;;;;;;;22.54;25.97;100320.25;213505;1274;140104;-64
2022/05/10 13:19:19;;;;;;;1.80;1.00;;;;;;;22.61;25.96;100312.34;214070;1276;140031;-65
2022/05/10 13:24:32;;;;;;;1.20;1.10;;;;;;;22.45;25.55;100303.95;215380;1274;140109;-66
2022/05/10 13:29:38;;;;;;;1.40;1.30;;;;;;;22.40;25.65;100290.02;215086;1274;139821;-65
2022/05/10 13:34:50;;;;;;;1.80;1.30;;;;;;;22.38;25.49;100284.73;214431;1274;141022;-65
2022/05/10 13:39:54;;;;;;;1.70;1.20;;;;;;;22.32;25.76;100280.98;213919;1274;142210;-64
2022/05/10 13:44:55;;;;;;;3.60;1.30;;;;;;;22.36;25.82;100267.77;214944;1274;143437;-67
2022/05/10 13:49:59;;;;;;;13.00;3.40;;;;;;;22.41;26.22;100262.84;215976;1273;140053;-65
2022/05/10 13:55:06;;;;;;;7.80;1.30;;;;;;;22.54;25.77;100251.08;215556;1274;141667;-67
2022/05/10 14:00:18;;;;;;;2.20;1.60;;;;;;;22.45;25.72;100245.59;215952;1275;141994;-66
2022/05/10 14:05:28;;;;;;;1.40;1.30;;;;;;;22.50;25.62;100232.95;215700;1276;140834;-67
2022/05/10 14:10:37;;;;;;;1.60;1.40;;;;;;;22.47;25.39;100222.73;215281;1274;140159;-64
2022/05/10 14:15:46;;;;;;;5.90;1.80;;;;;;;22.42;25.62;100213.31;215606;1274;140119;-64
2022/05/10 14:20:51;;;;;;;2.60;1.40;;;;;;;22.59;25.49;100205.55;213402;1274;140357;-65
2022/05/10 14:26:02;;;;;;;1.10;1.00;;;;;;;22.66;25.70;100199.15;214458;1274;140284;-65
2022/05/10 14:31:18;;;;;;;2.20;1.10;;;;;;;22.57;24.91;100194.27;213376;1274;139833;-64
2022/05/10 14:36:27;;;;;;;1.50;1.30;;;;;;;22.26;25.56;100187.08;213667;1274;141700;-64
2022/05/10 14:41:51;;;;;;;4.10;1.50;;;;;;;22.30;25.67;100178.04;214319;1274;141822;-64
2022/05/10 14:46:56;;;;;;;2.00;1.30;;;;;;;22.17;25.98;100175.19;214056;1274;140761;-64
2022/05/10 14:51:59;;;;;;;1.00;0.90;;;;;;;22.17;26.50;100168.35;214004;1274;140690;-64
2022/05/10 14:57:04;;;;;;;1.60;1.20;;;;;;;22.24;26.56;100159.27;213379;1274;139700;-64
2022/05/10 15:02:32;;;;;;;7.80;1.30;;;;;;;22.25;26.60;100150.07;214216;1274;233914;-64
2022/05/10 15:07:36;;;;;;;3.40;1.00;;;;;;;22.38;26.20;100139.02;213309;1274;140068;-65
2022/05/10 15:23:25;;;;;;;1.80;1.40;;;;;;;22.06;26.16;100116.64;212961;1274;139695;-63
2022/05/10 15:28:33;;;;;;;4.20;2.20;;;;;;;21.87;26.68;100108.57;213923;1274;140484;-63
2022/05/10 15:33:36;;;;;;;2.80;1.50;;;;;;;21.80;27.07;100109.40;215063;1274;140299;-64
2022/05/10 15:38:40;;;;;;;11.70;2.00;;;;;;;21.74;26.92;100104.56;213636;1274;140644;-64
2022/05/10 15:43:46;;;;;;;1.50;1.00;;;;;;;21.80;27.63;100101.10;213479;1274;140103;-62
2022/05/10 15:48:50;;;;;;;4.30;1.60;;;;;;;21.76;27.42;100087.77;214150;1274;140508;-64
2022/05/10 15:53:53;;;;;;;2.10;1.90;;;;;;;21.56;27.22;100082.02;213911;1274;140018;-65
2022/05/10 15:58:56;;;;;;;2.70;1.40;;;;;;;21.44;27.50;100075.71;214078;1274;140271;-62
2022/05/10 16:03:59;;;;;;;1.60;1.50;;;;;;;21.44;27.65;100070.66;213801;1274;139815;-62
2022/05/10 16:09:02;;;;;;;7.30;1.40;;;;;;;21.37;27.43;100065.16;213900;1274;141042;-62
2022/05/10 16:14:09;;;;;;;3.40;1.10;;;;;;;21.34;27.58;100058.61;213403;1276;141800;-63
2022/05/10 16:19:14;;;;;;;4.00;1.40;;;;;;;21.33;27.40;100054.45;213175;1274;141829;-64
2022/05/10 16:24:18;;;;;;;2.40;1.80;;;;;;;21.24;26.58;100046.08;213306;1275;141437;-65
2022/05/10 16:34:43;;;;;;;8.30;1.70;;;;;;;21.12;26.47;100036.34;213041;1275;141854;-62
2022/05/10 16:39:46;;;;;;;3.10;1.40;;;;;;;21.04;26.25;100033.98;213874;1274;141085;-63
2022/05/10 16:44:48;;;;;;;1.10;1.00;;;;;;;20.97;26.03;100026.17;213505;1275;151954;-63
2022/05/10 16:49:52;;;;;;;2.50;1.10;;;;;;;20.90;25.77;100026.77;213546;1276;140841;-64
2022/05/10 16:54:56;;;;;;;3.90;1.50;;;;;;;20.81;25.73;100018.30;213330;1275;220840;-64
2022/05/10 17:00:06;;;;;;;1.40;1.30;;;;;;;20.77;25.84;100021.80;213645;1276;141947;-63
2022/05/10 17:05:11;;;;;;;1.60;1.50;;;;;;;20.68;26.03;100015.98;213659;1276;141088;-63
2022/05/10 17:10:22;;;;;;;2.60;1.20;;;;;;;20.53;25.55;100017.44;214005;1274;141645;-63
2022/05/10 17:15:28;;;;;;;4.20;1.20;;;;;;;20.38;25.49;100013.63;214505;1275;140718;-63
2022/05/10 17:20:31;;;;;;;4.40;1.30;;;;;;;20.18;26.32;100010.96;214383;1274;140456;-64
2022/05/10 17:25:40;;;;;;;2.20;1.20;;;;;;;19.94;26.77;100006.15;214085;1274;140545;-64
2022/05/10 17:30:44;;;;;;;1.30;1.20;;;;;;;19.67;27.62;100007.77;214136;1274;142125;-63
2022/05/10 17:35:48;;;;;;;5.30;1.50;;;;;;;19.36;28.15;100014.08;214194;1274;140225;-65
2022/05/10 17:40:55;;;;;;;6.00;1.20;;;;;;;19.04;29.14;100007.57;214319;1274;151083;-66
2022/05/10 17:45:58;;;;;;;6.60;2.00;;;;;;;18.69;30.67;100004.27;214200;1274;140940;-64
2022/05/10 17:51:09;;;;;;;11.40;2.40;;;;;;;18.30;31.46;99998.58;213357;1274;141629;-65
2022/05/10 17:56:15;;;;;;;2.50;1.90;;;;;;;17.98;31.90;99999.19;213852;1274;142038;-65
2022/05/10 18:01:23;;;;;;;17.90;3.50;;;;;;;17.65;33.10;99995.80;213609;1275;141780;-65
2022/05/10 18:06:30;;;;;;;26.10;3.10;;;;;;;17.33;34.18;99996.73;213980;1274;140932;-66
2022/05/10 18:11:34;;;;;;;15.40;2.60;;;;;;;16.97;35.18;99994.46;213313;1276;141102;-64
2022/05/10 18:16:37;;;;;;;11.70;2.80;;;;;;;16.65;36.28;99994.02;213919;1276;141772;-65
2022/05/10 18:21:41;;;;;;;7.60;2.40;;;;;;;16.26;37.33;99998.47;213470;1275;143156;-64
2022/05/10 18:26:44;;;;;;;4.30;2.20;;;;;;;16.00;37.62;100003.17;213481;1274;141008;-65
2022/05/10 18:31:47;;;;;;;7.70;4.40;;;;;;;15.77;37.76;100006.85;213328;1276;141565;-65
2022/05/10 18:36:49;;;;;;;8.70;4.70;;;;;;;15.49;38.16;100011.26;213547;1274;143486;-65
2022/05/10 18:41:51;;;;;;;5.30;3.80;;;;;;;15.20;39.73;100015.63;213667;1275;141672;-65
2022/05/10 18:46:54;;;;;;;10.50;3.70;;;;;;;14.87;40.51;100014.09;213755;1275;139817;-66
2022/05/10 18:51:57;;;;;;;17.20;4.10;;;;;;;14.64;41.16;100018.92;214246;1274;140397;-66
2022/05/10 18:56:59;;;;;;;9.20;6.30;;;;;;;14.40;42.12;100021.52;213473;1274;141105;-65
2022/05/10 19:02:03;;;;;;;806.20;416.60;;;;;;;14.10;42.63;100015.71;213586;1274;142252;-65
2022/05/10 19:07:08;;;;;;;281.60;107.10;;;;;;;13.75;42.92;100012.55;213418;1276;143222;-65
2022/05/10 19:12:10;;;;;;;315.30;116.80;;;;;;;13.47;44.05;100011.85;213308;1276;141639;-65
2022/05/10 19:17:13;;;;;;;216.00;81.30;;;;;;;13.21;44.65;100013.30;214042;1274;141808;-65
2022/05/10 19:22:17;;;;;;;141.40;49.60;;;;;;;13.08;45.37;100010.04;213772;1276;142251;-65
2022/05/10 19:27:21;;;;;;;135.30;46.20;;;;;;;13.03;46.14;100012.15;213618;1274;141252;-66
2022/05/10 19:32:24;;;;;;;57.90;18.10;;;;;;;12.90;46.35;100010.11;214387;1276;141224;-67
2022/05/10 19:37:27;;;;;;;40.70;14.40;;;;;;;12.54;46.65;100001.85;213764;1277;140774;-66
2022/05/10 19:42:31;;;;;;;44.10;13.70;;;;;;;12.26;47.23;99996.77;213451;1274;142335;-65
2022/05/10 19:47:38;;;;;;;49.40;14.50;;;;;;;12.11;48.34;99992.33;213787;1276;505000;-65
2022/05/10 19:52:42;;;;;;;29.60;10.70;;;;;;;12.05;49.38;99991.88;213882;1274;140450;-66
2022/05/10 19:57:45;;;;;;;20.10;10.30;;;;;;;12.02;48.96;99990.42;213924;1274;140219;-66
2022/05/10 20:08:17;;;;;;;24.60;9.80;;;;;;;11.59;50.05;99984.23;214189;1276;142685;-66
2022/05/10 20:13:21;;;;;;;32.90;8.70;;;;;;;11.38;50.17;99981.07;214011;1274;142331;-65
2022/05/10 20:18:24;;;;;;;23.20;9.90;;;;;;;11.18;50.72;99980.41;214164;1274;140832;-65
2022/05/10 20:23:27;;;;;;;14.30;8.20;;;;;;;11.01;51.82;99975.27;213672;1274;141216;-65
2022/05/10 20:28:31;;;;;;;13.60;7.60;;;;;;;11.05;52.85;99975.24;213926;1274;141032;-65
2022/05/10 20:33:33;;;;;;;8.00;5.90;;;;;;;11.11;53.54;99976.77;213743;1274;141284;-65
2022/05/10 20:38:40;;;;;;;13.10;4.70;;;;;;;11.13;54.26;99968.66;214116;1274;153238;-65
2022/05/10 20:43:44;;;;;;;6.80;4.50;;;;;;;11.14;54.21;99966.06;213492;1274;141535;-65
2022/05/10 20:48:48;;;;;;;6.70;4.40;;;;;;;11.15;54.47;99962.67;214124;1274;141657;-63
2022/05/10 20:53:51;;;;;;;5.60;3.80;;;;;;;11.15;54.51;99958.04;213777;1274;140791;-66
2022/05/10 20:58:55;;;;;;;6.90;4.30;;;;;;;11.15;54.67;99962.35;214061;1274;141000;-65
2022/05/10 21:03:57;;;;;;;6.20;4.10;;;;;;;11.08;54.40;99959.36;213644;1274;141638;-65
2022/05/10 21:09:00;;;;;;;7.30;4.10;;;;;;;10.93;54.10;99956.69;213438;1274;142781;-65
2022/05/10 21:14:07;;;;;;;7.50;4.90;;;;;;;10.88;53.66;99952.30;213689;1274;140959;-65
2022/05/10 21:19:10;;;;;;;7.00;3.60;;;;;;;10.92;53.65;99954.05;213612;1274;141548;-64
2022/05/10 21:24:14;;;;;;;5.60;3.50;;;;;;;10.91;53.99;99951.29;213591;1274;141774;-65
2022/05/10 21:34:38;;;;;;;13.50;5.90;;;;;;;10.77;53.88;99943.14;213853;1274;141428;-65
2022/05/10 21:39:40;;;;;;;8.90;5.80;;;;;;;10.79;54.20;99941.63;213980;1274;140947;-66
2022/05/10 21:44:44;;;;;;;8.70;4.80;;;;;;;10.78;54.32;99934.26;213735;1274;140476;-65
2022/05/10 21:49:47;;;;;;;10.60;5.20;;;;;;;10.77;54.05;99929.20;213683;1274;140291;-65
2022/05/10 21:54:57;;;;;;;10.30;5.70;;;;;;;10.74;54.22;99928.66;214030;1274;140216;-66
2022/05/10 22:00:00;;;;;;;6.30;5.20;;;;;;;10.73;54.43;99929.42;213715;1274;139796;-65
2022/05/10 22:05:03;;;;;;;8.80;5.60;;;;;;;10.67;54.65;99925.77;213528;1274;152350;-65
2022/05/10 22:10:08;;;;;;;13.20;6.40;;;;;;;10.61;54.78;99919.39;214379;1274;140287;-66
2022/05/10 22:15:13;;;;;;;8.70;5.20;;;;;;;10.60;54.86;99908.98;213781;1275;140020;-64
2022/05/10 22:20:17;;;;;;;5.50;4.70;;;;;;;10.64;54.98;99902.73;213730;1274;140968;-65
2022/05/10 22:25:20;;;;;;;5.90;4.30;;;;;;;10.69;55.20;99896.13;213625;1274;139466;-65
2022/05/10 22:30:24;;;;;;;6.20;4.50;;;;;;;10.74;55.41;99893.56;215008;1274;139882;-65
2022/05/10 22:35:26;;;;;;;5.10;3.70;;;;;;;10.80;55.35;99892.06;213597;1274;141617;-66
2022/05/10 22:40:29;;;;;;;5.10;4.20;;;;;;;10.87;55.54;99891.67;214244;1274;140303;-65
2022/05/10 22:45:33;;;;;;;7.20;4.60;;;;;;;10.96;55.60;99893.23;214004;1274;141181;-64
2022/05/10 22:50:36;;;;;;;6.50;4.10;;;;;;;11.16;55.40;99888.41;213610;1274;139757;-65
2022/05/10 22:55:38;;;;;;;8.70;4.40;;;;;;;11.36;55.19;99880.87;213963;1274;141360;-65
2022/05/10 23:00:41;;;;;;;10.20;3.90;;;;;;;11.53;54.94;99878.93;213415;1274;139698;-65
2022/05/10 23:05:45;;;;;;;7.00;5.10;;;;;;;11.64;54.63;99872.40;214452;1274;139654;-65
2022/05/10 23:10:47;;;;;;;6.40;4.30;;;;;;;11.73;54.35;99869.37;213636;1274;140728;-65
2022/05/10 23:15:51;;;;;;;5.90;4.60;;;;;;;11.81;54.30;99870.35;214086;1274;140015;-65
2022/05/10 23:20:54;;;;;;;8.20;4.60;;;;;;;11.85;54.16;99863.98;213496;1276;140956;-64
2022/05/10 23:25:57;;;;;;;8.80;4.90;;;;;;;11.88;54.13;99862.27;213800;1276;139501;-65
2022/05/10 23:31:01;;;;;;;5.30;4.00;;;;;;;11.92;54.04;99856.61;213930;1274;139965;-65
2022/05/10 23:36:03;;;;;;;7.40;4.80;;;;;;;11.95;54.02;99859.79;213415;1274;139614;-65
2022/05/10 23:41:06;;;;;;;6.30;4.20;;;;;;;11.94;54.03;99855.13;214208;1274;140128;-64
2022/05/10 23:46:09;;;;;;;7.20;4.50;;;;;;;11.94;53.93;99852.83;213944;1274;140157;-65
2022/05/10 23:51:12;;;;;;;9.40;5.20;;;;;;;11.93;54.07;99850.91;214026;1274;139360;-65
2022/05/10 23:56:15;;;;;;;10.00;4.40;;;;;;;11.87;54.22;99842.23;214460;1274;141144;-65
